Atlantic - Newfoundland: Past 24 Hour Conditions

 

Nickerson Bank - 44251

03:00 AM ADT 27 May 2016Buoy position: 46.45N 53.38W
Disclaimer

This table is a summary of hourly weather conditions for the past 24 hours.
Please note that these observations might not always be representative of weather conditions over their associated marine area.

Date / Time
(ADT)
Wind(knots) Wave height(m) Wave period(s) Pressure(kPa) Air tempC) Water tempC)
27 May 2016
3:00 N 12 gust 14 1.2 8.0 102.0 6 5
2:00 N 10 gust 12 1.3 8.0 101.9 6 5
1:00 NNE 8 gust 10 1.3 9.0 101.9 6 5
0:00 NNE 12 gust 14 1.3 8.0 101.8 6 5
26 May 2016
23:00 NNE 14 gust 18 1.4 8.0 101.7 6 5
22:00 NNE 12 gust 18 1.2 9.0 101.6 6 5
21:00 NE 10 gust 14 1.2 8.0 101.6 6 5
20:00 NE 16 gust 18 1.4 8.0 101.5 5 5
19:00 ENE 19 gust 23 1.3 8.0 101.5 5 5
18:00 ENE 18 gust 19 1.3 9.0 101.4 5 5
17:00 ENE 14 gust 19 1.2 8.0 101.4 6 6
16:00 ENE 12 gust 16 1.2 7.0 101.4 6 6
15:00 N 4 gust 6 1.2 8.0 101.4 7 6
14:00 SW 2 gust 4 1.2 8.0 101.3 7 6
13:00 SW 8 gust 8 1.2 8.0 101.3 7 5
12:00 SSW 6 gust 6 1.2 8.0 101.3 7 6
11:00 ESE 4 gust 6 1.1 8.0 101.3 7 5
10:00 S 2 gust 6 1.1 7.0 101.3 8 5
9:00 W 4 gust 4 1.1 7.0 101.4 7 5
8:00 SSE 4 gust 8 1.1 8.0 101.4 8 5
7:00 S 8 gust 14 1.1 8.0 101.4 8 5
6:00 SE 2 gust 4 1.1 8.0 101.4 7 5
5:00 S 8 gust 8 1.1 8.0 101.5 8 5
4:00 S 12 gust 14 1.1 8.0 101.5 8 5
3:00 SSW 4 gust 6 1.0 8.0 101.6 8 5

Zoom-in to make a selection

Map of Atlantic - Newfoundland marine weather areas Southwestern Grand Banks - 44138 Banquereau - 44139 Tail of the Bank - 44140 Nickerson Bank - 44251 Northeast Burgeo Bank - 44255 Blanc-Sablon Airport Cap Whittle Chevery Natashquan Airport Heath Point Miscou Island Grand Étang Ingonish Beach North Mountain St.Paul Island J.A. Douglas McCurdy Sydney Airport Charlottetown Airport East Point North Cape Argentia Bonavista Burgeo Cape Race Corner Brook Daniel's Harbour Englee Ferolle Point La Scie Port aux Basques Rocky Harbour Sagona Island St. Anthony Airport St. John's Int'l Airport St. Lawrence Stephenville Airport Twillingate Winterland Wreckhouse Cartwright Airport Mary's Harbour Grates Cove Pool's Island Marticot Island Long Pond Eskasoni (First Nations) Îles de la Madeleine Airport
Legend:
buoy Buoy
land station Land Station

Atlantic - Newfoundland Area

Another Region

What we are doing

Date modified: